Time;durP1;ratioP1;P1;durP2;ratioP2;P2;SDS_P1;SDS_P2;PMS_P1;PMS_P2;Temp;Humidity;BMP_temperature;BMP_pressure;BME280_temperature;BME280_humidity;BME280_pressure;Samples;Min_cycle;Max_cycle;Signal;HPM_P1;HPM_P2
2021/07/22 00:02:26;;;;;;;7.00;2.10;;;18.30;90.60;;;;;;5030394;28;20141;-87
2021/07/22 00:05:27;;;;;;;;;;;18.20;90.80;;;;;;5018440;28;20034;-86
2021/07/22 00:08:00;;;;;;;4.80;2.40;;;18.20;91.10;;;;;;4999011;28;19921;-85
2021/07/22 00:10:26;;;;;;;4.22;1.92;;;18.10;91.20;;;;;;5006494;28;20061;-82
2021/07/22 00:12:51;;;;;;;5.03;2.35;;;18.10;91.40;;;;;;5009004;28;20030;-82
2021/07/22 00:15:17;;;;;;;8.38;2.03;;;18.10;91.50;;;;;;5011615;28;20387;-81
2021/07/22 00:17:45;;;;;;;7.47;2.72;;;18.10;91.60;;;;;;5012706;28;20052;-80
2021/07/22 00:20:11;;;;;;;5.72;2.60;;;18.10;91.60;;;;;;5027272;28;20037;-82
2021/07/22 00:22:38;;;;;;;6.97;2.33;;;18.10;91.70;;;;;;4993670;28;20046;-81
2021/07/22 00:25:08;;;;;;;3.13;1.90;;;18.20;91.60;;;;;;5009462;28;20080;-82
2021/07/22 00:27:35;;;;;;;12.45;2.75;;;18.20;91.50;;;;;;5000761;28;20084;-83
2021/07/22 00:30:04;;;;;;;6.25;2.67;;;18.20;91.50;;;;;;5016309;28;20026;-84
2021/07/22 00:32:30;;;;;;;4.30;2.70;;;18.30;91.40;;;;;;5013569;28;20137;-85
2021/07/22 00:34:55;;;;;;;8.20;2.33;;;18.30;91.30;;;;;;4993246;28;20042;-84
2021/07/22 00:37:21;;;;;;;3.88;2.30;;;18.40;91.10;;;;;;5009067;28;20030;-86
2021/07/22 00:39:47;;;;;;;4.93;2.53;;;18.50;90.90;;;;;;5009303;28;20372;-86
2021/07/22 00:42:12;;;;;;;5.75;2.42;;;18.60;90.40;;;;;;4991584;28;20100;-87
2021/07/22 00:44:38;;;;;;;5.32;2.17;;;18.80;90.00;;;;;;4993453;28;20045;-87
2021/07/22 00:47:04;;;;;;;6.88;2.13;;;19.00;88.90;;;;;;5010343;28;20564;-86
2021/07/22 00:49:30;;;;;;;6.18;2.47;;;19.10;88.30;;;;;;4992127;28;20029;-89
2021/07/22 00:51:55;;;;;;;6.03;2.72;;;19.20;87.70;;;;;;5010446;28;20522;-88
2021/07/22 00:54:21;;;;;;;6.70;3.05;;;19.20;87.20;;;;;;4993251;28;20141;-88
2021/07/22 00:56:47;;;;;;;5.45;2.70;;;19.30;87.40;;;;;;4994136;28;20160;-89
2021/07/22 00:59:13;;;;;;;13.85;3.38;;;19.40;86.30;;;;;;5010346;28;20509;-89
2021/07/22 01:01:38;;;;;;;5.18;2.67;;;19.40;85.80;;;;;;4993018;28;20124;-89
2021/07/22 01:04:04;;;;;;;8.05;2.70;;;19.50;85.40;;;;;;4992540;28;20526;-85
2021/07/22 01:06:30;;;;;;;5.95;2.63;;;19.60;84.80;;;;;;4991202;28;20119;-79
2021/07/22 01:08:55;;;;;;;8.45;2.72;;;19.60;84.30;;;;;;4991473;28;20091;-88
2021/07/22 01:11:21;;;;;;;9.27;3.05;;;19.60;84.20;;;;;;4991474;28;20069;-88
2021/07/22 01:13:46;;;;;;;5.30;2.47;;;19.70;83.60;;;;;;4991057;28;20052;-85
2021/07/22 01:16:12;;;;;;;6.38;2.80;;;19.70;83.20;;;;;;4991121;28;20403;-86
2021/07/22 01:18:38;;;;;;;3.90;2.45;;;19.80;82.80;;;;;;4991388;28;20121;-85
2021/07/22 01:21:08;;;;;;;6.25;2.28;;;19.80;82.60;;;;;;5008056;28;20552;-88
2021/07/22 01:23:34;;;;;;;11.32;3.10;;;19.80;82.20;;;;;;4991348;28;20041;-88
2021/07/22 01:26:00;;;;;;;4.93;2.60;;;19.90;82.10;;;;;;4991845;28;20129;-87
2021/07/22 01:28:25;;;;;;;7.90;2.53;;;19.80;81.80;;;;;;4992081;28;20033;-87
2021/07/22 01:30:51;;;;;;;4.63;2.30;;;19.80;81.60;;;;;;4992140;28;20498;-87
2021/07/22 01:33:17;;;;;;;6.30;3.08;;;19.80;81.50;;;;;;4992286;28;20394;-90
2021/07/22 01:35:42;;;;;;;8.43;3.35;;;19.80;81.50;;;;;;4992562;28;20656;-90
2021/07/22 01:38:09;;;;;;;5.20;2.33;;;19.70;81.50;;;;;;4992741;28;20021;-88
2021/07/22 01:40:35;;;;;;;6.15;2.60;;;19.70;81.50;;;;;;4992466;28;20030;-91
2021/07/22 01:43:05;;;;;;;6.07;2.65;;;19.70;81.30;;;;;;4992240;28;20034;-91
2021/07/22 01:45:31;;;;;;;6.10;2.85;;;19.60;81.30;;;;;;4992481;28;20398;-88
2021/07/22 01:47:57;;;;;;;8.35;2.80;;;19.60;81.10;;;;;;4991515;28;20039;-89
2021/07/22 01:50:22;;;;;;;8.00;3.00;;;19.60;80.80;;;;;;4991715;28;20036;-88
2021/07/22 01:52:48;;;;;;;7.25;3.40;;;19.50;80.70;;;;;;5009837;28;20104;-87
2021/07/22 01:55:14;;;;;;;9.85;3.25;;;19.50;80.60;;;;;;4992262;28;20037;-89
2021/07/22 01:57:39;;;;;;;10.95;3.60;;;19.40;80.30;;;;;;4991810;28;20061;-90
2021/07/22 02:00:06;;;;;;;9.18;2.72;;;19.40;80.40;;;;;;4992150;28;20037;-88
2021/07/22 02:02:32;;;;;;;6.57;3.13;;;19.40;80.40;;;;;;5004817;28;20036;-87
2021/07/22 02:04:59;;;;;;;9.75;3.35;;;19.40;80.30;;;;;;5010059;28;20032;-87
2021/07/22 02:07:25;;;;;;;5.18;3.17;;;19.40;80.30;;;;;;5029090;28;20042;-89
2021/07/22 02:09:51;;;;;;;8.88;3.53;;;19.30;80.50;;;;;;5011487;28;20060;-89
2021/07/22 02:12:16;;;;;;;9.00;3.35;;;19.20;80.80;;;;;;5011476;28;20018;-88
2021/07/22 02:14:42;;;;;;;7.07;3.30;;;19.10;81.10;;;;;;5011700;28;20037;-88
2021/07/22 02:17:08;;;;;;;9.10;2.88;;;19.10;81.30;;;;;;5011493;28;20028;-89
2021/07/22 02:19:34;;;;;;;7.10;3.80;;;19.00;81.30;;;;;;5011583;28;20036;-88
2021/07/22 02:22:00;;;;;;;6.40;3.47;;;19.00;81.60;;;;;;5011458;28;20120;-88
2021/07/22 02:24:26;;;;;;;6.95;3.33;;;19.00;81.90;;;;;;5011641;28;20128;-88
2021/07/22 02:26:51;;;;;;;8.50;3.53;;;18.80;82.00;;;;;;5011238;28;20025;-89
2021/07/22 02:29:17;;;;;;;8.05;3.10;;;18.80;82.20;;;;;;5011300;28;20029;-87
2021/07/22 02:31:42;;;;;;;7.43;3.05;;;18.70;82.40;;;;;;5011032;28;20105;-88
2021/07/22 02:47:36;;;;;;;12.93;3.10;;;18.40;83.90;;;;;;5039556;28;20551;-86
2021/07/22 02:54:40;;;;;;;8.98;3.30;;;18.20;84.60;;;;;;5054417;28;20025;-85
2021/07/22 03:33:40;;;;;;;8.93;3.60;;;18.00;87.20;;;;;;5046913;28;20129;-83
2021/07/22 03:49:22;;;;;;;7.75;3.67;;;18.50;85.30;;;;;;5009675;28;20123;-87
2021/07/22 03:51:48;;;;;;;6.80;3.80;;;18.50;84.70;;;;;;5011103;28;20076;-88
2021/07/22 03:54:14;;;;;;;6.32;3.67;;;18.60;84.50;;;;;;5010851;28;20030;-88
2021/07/22 03:56:40;;;;;;;4.45;3.15;;;18.70;84.40;;;;;;5010157;28;20544;-90
2021/07/22 03:59:06;;;;;;;8.30;3.95;;;18.80;84.10;;;;;;5010189;28;20046;-88
2021/07/22 04:01:32;;;;;;;6.20;3.50;;;18.80;84.40;;;;;;5010179;28;20061;-87
2021/07/22 04:03:58;;;;;;;7.57;3.28;;;18.90;83.30;;;;;;5011874;28;20040;-89
2021/07/22 04:06:23;;;;;;;5.50;3.22;;;19.00;82.40;;;;;;5010800;28;20045;-89
2021/07/22 04:08:49;;;;;;;10.70;3.83;;;19.20;81.70;;;;;;5010011;28;20540;-89
2021/07/22 04:11:15;;;;;;;8.05;3.20;;;19.30;81.30;;;;;;5010409;28;20026;-88
2021/07/22 04:13:40;;;;;;;7.00;3.70;;;19.40;80.50;;;;;;5014242;28;20125;-85
2021/07/22 04:16:06;;;;;;;11.10;3.17;;;19.50;80.10;;;;;;5013916;28;20025;-89
2021/07/22 04:18:32;;;;;;;8.50;3.40;;;19.60;78.80;;;;;;5012970;28;20029;-90
2021/07/22 04:21:00;;;;;;;8.40;3.42;;;19.80;77.90;;;;;;5013317;28;20083;-89
2021/07/22 04:23:26;;;;;;;6.20;3.05;;;19.90;77.00;;;;;;5013233;28;20042;-89
2021/07/22 04:25:51;;;;;;;5.78;2.88;;;20.10;76.40;;;;;;5013357;28;20060;-88
2021/07/22 04:28:17;;;;;;;12.88;3.67;;;20.20;75.90;;;;;;5013295;28;20079;-90
2021/07/22 04:30:42;;;;;;;7.65;3.08;;;20.40;75.20;;;;;;5012872;28;20144;-87
2021/07/22 04:33:08;;;;;;;10.55;3.28;;;20.60;74.40;;;;;;5012509;28;20045;-87
2021/07/22 04:35:34;;;;;;;4.97;2.97;;;20.80;73.30;;;;;;5013651;28;20030;-86
2021/07/22 04:38:00;;;;;;;5.90;2.92;;;21.10;71.70;;;;;;5012802;28;20587;-87
2021/07/22 04:40:26;;;;;;;6.35;2.92;;;21.30;71.00;;;;;;5012410;28;20500;-87
2021/07/22 04:42:52;;;;;;;13.45;3.47;;;21.60;69.80;;;;;;5030584;28;20076;-89
2021/07/22 04:45:17;;;;;;;6.93;3.03;;;21.80;69.10;;;;;;5013301;28;20033;-87
2021/07/22 04:47:43;;;;;;;16.23;4.38;;;21.80;67.90;;;;;;5012489;28;20383;-90
2021/07/22 04:50:10;;;;;;;8.93;3.72;;;21.90;67.60;;;;;;5012598;28;20100;-89
2021/07/22 04:52:35;;;;;;;9.82;3.50;;;21.90;67.60;;;;;;5012565;28;20041;-86
2021/07/22 04:55:01;;;;;;;7.90;3.33;;;21.80;67.00;;;;;;5012219;28;20022;-88
2021/07/22 04:57:27;;;;;;;6.97;3.38;;;21.90;66.50;;;;;;5011548;28;20563;-89
2021/07/22 04:59:53;;;;;;;6.55;3.08;;;21.90;66.80;;;;;;5011917;28;20454;-88
2021/07/22 05:02:19;;;;;;;7.68;3.55;;;21.90;66.70;;;;;;5029679;28;20485;-87
2021/07/22 05:04:45;;;;;;;10.77;3.85;;;21.80;66.10;;;;;;5030454;28;20559;-89
2021/07/22 05:07:11;;;;;;;6.10;3.75;;;21.90;65.50;;;;;;5011829;28;20116;-89
2021/07/22 05:09:37;;;;;;;10.82;3.78;;;21.90;65.40;;;;;;5012455;28;20055;-87
2021/07/22 05:12:04;;;;;;;7.68;3.53;;;21.90;66.30;;;;;;5012170;28;20136;-88
2021/07/22 05:14:30;;;;;;;9.05;3.08;;;21.90;65.50;;;;;;5012056;28;20120;-89
2021/07/22 05:16:55;;;;;;;8.45;3.50;;;22.10;65.90;;;;;;5012207;28;20145;-86
2021/07/22 05:19:21;;;;;;;5.75;2.70;;;22.20;64.10;;;;;;5011618;28;20033;-88
2021/07/22 05:21:47;;;;;;;8.25;3.55;;;22.30;64.20;;;;;;5012128;28;20067;-89
2021/07/22 05:24:12;;;;;;;5.05;3.05;;;22.60;63.40;;;;;;5012395;28;20044;-84
2021/07/22 05:26:38;;;;;;;5.88;3.20;;;22.70;62.50;;;;;;5029558;28;20026;-87
2021/07/22 05:29:04;;;;;;;6.70;3.30;;;22.80;62.40;;;;;;5011997;28;20564;-88
2021/07/22 05:31:30;;;;;;;6.18;3.17;;;23.00;62.20;;;;;;5011595;28;20053;-88
2021/07/22 05:33:55;;;;;;;9.10;3.08;;;23.00;61.70;;;;;;5008214;28;20683;-87
2021/07/22 05:36:21;;;;;;;4.85;2.97;;;23.00;61.40;;;;;;5008410;28;20049;-87
2021/07/22 05:38:47;;;;;;;8.55;3.17;;;23.00;60.70;;;;;;5008863;28;20034;-88
2021/07/22 05:41:12;;;;;;;7.68;2.80;;;23.10;60.90;;;;;;5008221;28;20026;-89
2021/07/22 05:43:38;;;;;;;7.97;2.97;;;23.20;60.00;;;;;;5008354;28;20088;-88
2021/07/22 05:46:04;;;;;;;9.27;3.15;;;23.20;59.40;;;;;;5008282;28;20030;-87
2021/07/22 05:48:29;;;;;;;7.88;3.42;;;23.30;59.30;;;;;;5008451;28;20109;-88
2021/07/22 05:51:02;;;;;;;14.48;3.03;;;23.40;59.60;;;;;;5008774;28;20026;-87
2021/07/22 05:53:28;;;;;;;12.48;2.95;;;23.60;58.80;;;;;;5008054;28;20029;-89
2021/07/22 05:56:00;;;;;;;6.50;3.38;;;23.60;57.90;;;;;;5009152;28;20025;-87
2021/07/22 05:58:27;;;;;;;7.82;2.65;;;23.70;57.90;;;;;;5008029;28;20096;-87
2021/07/22 06:00:53;;;;;;;8.18;2.90;;;23.80;57.10;;;;;;5008586;28;20537;-88
2021/07/22 06:03:18;;;;;;;8.05;3.25;;;24.00;56.30;;;;;;5007388;28;20103;-82
2021/07/22 06:05:44;;;;;;;7.80;3.35;;;24.60;55.50;;;;;;5007767;28;20029;-84
2021/07/22 06:08:10;;;;;;;6.03;2.63;;;25.10;53.30;;;;;;5008127;28;20149;-84
2021/07/22 06:10:37;;;;;;;5.88;2.97;;;25.30;52.80;;;;;;5008987;28;20029;-83
2021/07/22 06:13:03;;;;;;;6.25;3.15;;;25.20;52.80;;;;;;5007852;28;20049;-83
2021/07/22 06:15:28;;;;;;;8.80;3.30;;;25.40;51.50;;;;;;5011364;28;20026;-84
2021/07/22 06:17:54;;;;;;;5.20;2.72;;;25.10;52.10;;;;;;5007378;28;20030;-82
2021/07/22 06:20:20;;;;;;;9.75;3.45;;;25.30;52.00;;;;;;5007945;28;20033;-83
2021/07/22 06:22:45;;;;;;;3.55;2.72;;;25.60;50.20;;;;;;5008908;28;20274;-86
2021/07/22 06:25:13;;;;;;;5.65;2.60;;;26.40;49.00;;;;;;5007618;28;20030;-84
2021/07/22 06:27:40;;;;;;;4.20;2.30;;;27.10;46.70;;;;;;5008768;28;20029;-83
2021/07/22 06:30:08;;;;;;;6.15;3.17;;;27.70;43.90;;;;;;5007364;28;20037;-83
2021/07/22 06:32:33;;;;;;;10.25;3.20;;;28.40;42.40;;;;;;5006839;28;20026;-84
2021/07/22 06:34:59;;;;;;;4.57;2.58;;;28.80;41.10;;;;;;5006619;28;20135;-84
2021/07/22 06:37:25;;;;;;;4.95;2.90;;;28.60;40.80;;;;;;5007055;28;20125;-84
2021/07/22 06:39:51;;;;;;;7.28;2.35;;;28.10;41.90;;;;;;5006815;28;20033;-85
2021/07/22 06:42:16;;;;;;;6.38;3.38;;;28.90;41.70;;;;;;5007832;28;20041;-84
2021/07/22 06:44:42;;;;;;;3.70;2.03;;;29.60;39.70;;;;;;5007194;28;20037;-84
2021/07/22 06:47:08;;;;;;;4.35;2.53;;;30.20;38.60;;;;;;5007062;28;20125;-83
2021/07/22 06:49:33;;;;;;;8.27;2.92;;;30.50;37.40;;;;;;5007872;28;20391;-84
2021/07/22 06:52:03;;;;;;;4.18;2.70;;;30.50;37.10;;;;;;5007032;28;20029;-83
2021/07/22 06:54:29;;;;;;;3.63;2.33;;;30.60;37.30;;;;;;5007099;28;20029;-83
2021/07/22 06:56:54;;;;;;;6.13;2.72;;;31.00;37.10;;;;;;5006960;28;20072;-85
2021/07/22 06:59:20;;;;;;;11.07;2.60;;;31.30;35.80;;;;;;5006652;28;20777;-84
2021/07/22 07:01:45;;;;;;;5.57;2.72;;;31.30;36.10;;;;;;5006270;28;20033;-85
2021/07/22 07:04:11;;;;;;;7.68;3.15;;;31.60;35.80;;;;;;5006645;28;20143;-85
2021/07/22 07:06:37;;;;;;;5.82;2.88;;;32.00;35.10;;;;;;5007116;28;20172;-84
2021/07/22 07:09:06;;;;;;;7.55;2.60;;;32.30;34.80;;;;;;5007036;28;20042;-84
2021/07/22 07:11:35;;;;;;;5.38;2.83;;;32.50;34.10;;;;;;5007224;28;20589;-84
2021/07/22 07:14:01;;;;;;;6.47;3.17;;;32.20;34.60;;;;;;5008447;28;20038;-84
2021/07/22 07:16:26;;;;;;;4.28;2.90;;;32.10;35.10;;;;;;5007028;28;20029;-85
2021/07/22 07:18:52;;;;;;;5.40;3.08;;;31.80;35.20;;;;;;5007669;28;20037;-85
2021/07/22 07:21:18;;;;;;;12.38;3.08;;;32.00;34.80;;;;;;5006782;28;20026;-84
2021/07/22 07:23:43;;;;;;;4.03;2.60;;;31.80;35.40;;;;;;5008232;28;20490;-81
2021/07/22 07:26:10;;;;;;;4.35;2.58;;;31.90;35.40;;;;;;5006800;28;20029;-85
2021/07/22 07:28:36;;;;;;;10.20;2.40;;;31.90;36.30;;;;;;5008098;28;20292;-84
2021/07/22 07:31:02;;;;;;;10.02;2.78;;;32.00;35.30;;;;;;5005822;28;20422;-84
2021/07/22 07:33:28;;;;;;;7.15;3.10;;;31.80;35.60;;;;;;5006622;28;20054;-84
2021/07/22 07:35:54;;;;;;;9.70;2.67;;;31.50;36.00;;;;;;5006394;28;20025;-84
2021/07/22 07:38:20;;;;;;;7.47;2.75;;;31.40;36.50;;;;;;5005878;28;20029;-84
2021/07/22 07:40:46;;;;;;;7.18;2.65;;;31.40;36.80;;;;;;5006370;28;20526;-85
2021/07/22 07:43:16;;;;;;;6.32;2.70;;;31.20;36.70;;;;;;5005930;28;20042;-85
2021/07/22 07:45:42;;;;;;;5.13;3.08;;;31.10;37.70;;;;;;5006142;28;20096;-84
2021/07/22 07:48:08;;;;;;;9.15;3.05;;;30.70;37.30;;;;;;5010179;28;20042;-85
2021/07/22 07:50:34;;;;;;;11.85;4.10;;;30.60;37.90;;;;;;5010048;28;20057;-85
2021/07/22 07:53:09;;;;;;;6.40;3.13;;;31.10;38.20;;;;;;5010706;28;20053;-85
2021/07/22 07:55:34;;;;;;;9.00;3.28;;;31.00;38.00;;;;;;5009965;28;20034;-84
2021/07/22 07:58:00;;;;;;;9.73;3.17;;;30.80;37.80;;;;;;5009598;28;20061;-85
2021/07/22 08:00:25;;;;;;;11.27;3.63;;;30.50;39.00;;;;;;5011104;28;20108;-84
2021/07/22 08:02:58;;;;;;;16.05;4.28;;;30.00;39.70;;;;;;5011706;28;20038;-85
2021/07/22 08:05:24;;;;;;;12.77;3.70;;;29.60;40.20;;;;;;5009675;28;20022;-83
2021/07/22 08:07:49;;;;;;;10.10;2.63;;;29.40;40.60;;;;;;5010811;28;20033;-83
2021/07/22 08:10:15;;;;;;;8.60;3.20;;;29.70;41.10;;;;;;5009165;28;20032;-83
2021/07/22 08:12:40;;;;;;;15.48;3.13;;;30.30;39.40;;;;;;5009373;28;20030;-83
2021/07/22 08:15:07;;;;;;;11.43;3.05;;;30.30;40.00;;;;;;5009312;28;20128;-86
2021/07/22 08:17:33;;;;;;;7.63;3.22;;;30.30;39.90;;;;;;5010395;28;20022;-83
2021/07/22 08:20:00;;;;;;;4.93;2.90;;;30.40;40.50;;;;;;5008984;28;20052;-83
2021/07/22 08:22:26;;;;;;;8.23;3.58;;;30.00;40.90;;;;;;5010809;28;20029;-84
2021/07/22 08:24:52;;;;;;;14.55;3.28;;;30.30;40.20;;;;;;5010071;28;20045;-83
2021/07/22 08:27:28;;;;;;;9.35;3.35;;;30.30;39.90;;;;;;5010203;28;20022;-84
2021/07/22 08:29:55;;;;;;;7.53;3.38;;;30.70;39.90;;;;;;5008715;28;20388;-86
2021/07/22 08:32:20;;;;;;;6.57;2.78;;;31.30;38.40;;;;;;5008024;28;20034;-83
2021/07/22 08:34:47;;;;;;;5.28;2.78;;;32.00;37.50;;;;;;5027966;28;20068;-83
2021/07/22 08:37:13;;;;;;;6.80;3.17;;;31.90;37.10;;;;;;5029516;28;20071;-82
2021/07/22 08:39:43;;;;;;;11.07;3.08;;;31.60;37.80;;;;;;5029873;28;20060;-84
2021/07/22 08:42:11;;;;;;;15.38;3.63;;;31.10;38.80;;;;;;5012798;28;20041;-83
2021/07/22 08:44:38;;;;;;;10.82;4.05;;;30.70;38.90;;;;;;5012253;28;20417;-84
2021/07/22 08:47:08;;;;;;;11.57;3.95;;;30.70;40.00;;;;;;5029664;28;20025;-83
2021/07/22 08:49:36;;;;;;;8.05;3.80;;;30.40;39.20;;;;;;5012471;28;20063;-83
2021/07/22 08:52:12;;;;;;;11.00;3.20;;;30.20;40.20;;;;;;5012416;28;20032;-84
2021/07/22 08:54:39;;;;;;;7.93;4.22;;;29.80;40.00;;;;;;5012493;28;20064;-83
2021/07/22 08:57:09;;;;;;;9.85;3.55;;;29.70;41.30;;;;;;5011479;28;20115;-84
2021/07/22 08:59:35;;;;;;;9.13;3.72;;;30.40;40.40;;;;;;5011664;28;20254;-83
2021/07/22 09:02:02;;;;;;;7.30;3.33;;;31.00;38.80;;;;;;5011481;28;20619;-84
2021/07/22 09:04:28;;;;;;;8.13;3.45;;;31.30;37.80;;;;;;5011419;28;20509;-84
2021/07/22 09:06:55;;;;;;;13.15;3.47;;;31.20;37.80;;;;;;5012052;28;20033;-84
2021/07/22 09:09:20;;;;;;;11.43;3.30;;;30.60;38.60;;;;;;5030017;28;20036;-84
2021/07/22 09:12:01;;;;;;;8.07;3.78;;;30.00;39.20;;;;;;5011777;28;20033;-83
2021/07/22 09:14:29;;;;;;;11.77;3.63;;;29.60;39.10;;;;;;5029295;28;20033;-83
2021/07/22 09:16:56;;;;;;;10.32;3.95;;;29.10;40.70;;;;;;5011564;28;20025;-83
2021/07/22 09:19:51;;;;;;;9.20;3.70;;;29.00;41.60;;;;;;5029316;28;20034;-82
2021/07/22 09:22:35;;;;;;;9.82;3.58;;;29.30;40.60;;;;;;5006828;28;20042;-83
2021/07/22 09:25:01;;;;;;;8.80;3.45;;;30.30;40.00;;;;;;5028585;28;20038;-83
2021/07/22 09:27:39;;;;;;;17.55;4.90;;;31.40;39.20;;;;;;5011163;28;20498;-84
2021/07/22 09:30:09;;;;;;;7.25;2.85;;;32.10;37.10;;;;;;5010228;28;20167;-82
2021/07/22 09:32:36;;;;;;;10.73;3.47;;;32.50;36.60;;;;;;5010556;28;20022;-85
2021/07/22 09:35:16;;;;;;;11.93;3.45;;;32.90;35.30;;;;;;5028625;28;20042;-85
2021/07/22 09:37:46;;;;;;;6.40;3.35;;;33.00;36.30;;;;;;5010963;28;20551;-85
2021/07/22 09:40:17;;;;;;;9.95;3.38;;;33.20;35.30;;;;;;5028690;28;20584;-85
2021/07/22 09:42:54;;;;;;;13.95;3.83;;;33.50;34.60;;;;;;5010662;28;20124;-85
2021/07/22 09:45:23;;;;;;;7.20;3.40;;;33.30;34.40;;;;;;5009892;28;20025;-83
2021/07/22 09:47:49;;;;;;;7.22;3.10;;;33.10;35.60;;;;;;5010686;28;20029;-83
2021/07/22 09:50:23;;;;;;;5.55;2.70;;;33.50;34.90;;;;;;5011116;28;20030;-82
2021/07/22 09:53:12;;;;;;;7.20;3.08;;;33.60;33.30;;;;;;5010911;28;20041;-82
2021/07/22 09:55:40;;;;;;;14.88;3.63;;;33.70;34.50;;;;;;5010215;28;20040;-82
2021/07/22 09:58:08;;;;;;;8.02;3.58;;;33.70;33.60;;;;;;5010270;28;20036;-82
2021/07/22 10:00:35;;;;;;;8.13;3.35;;;34.10;33.40;;;;;;5010105;28;20035;-83
2021/07/22 10:03:06;;;;;;;5.65;3.17;;;33.90;33.30;;;;;;5010338;28;20127;-83
2021/07/22 10:05:38;;;;;;;5.57;2.78;;;33.30;34.30;;;;;;5010601;28;20536;-83
2021/07/22 10:08:05;;;;;;;6.65;3.40;;;33.00;34.50;;;;;;5009969;28;20116;-85
2021/07/22 10:10:35;;;;;;;6.07;3.45;;;32.50;34.20;;;;;;5009738;28;20115;-83
2021/07/22 10:13:02;;;;;;;5.50;3.22;;;32.20;35.80;;;;;;5010513;28;20498;-82
2021/07/22 10:15:37;;;;;;;8.93;3.03;;;31.90;36.60;;;;;;5009489;28;20497;-83
2021/07/22 10:18:06;;;;;;;10.43;3.17;;;31.40;36.40;;;;;;5009659;28;20498;-83
2021/07/22 10:20:35;;;;;;;13.77;2.83;;;31.40;36.50;;;;;;5010204;28;20037;-83
2021/07/22 10:23:02;;;;;;;6.20;3.03;;;31.30;36.60;;;;;;5009769;28;20037;-83
2021/07/22 10:25:28;;;;;;;6.53;3.00;;;30.80;37.90;;;;;;5010435;28;20132;-83
2021/07/22 10:27:56;;;;;;;12.93;3.95;;;30.80;38.10;;;;;;5009847;28;20561;-83
2021/07/22 10:30:23;;;;;;;6.30;2.97;;;30.60;38.10;;;;;;5009993;28;20037;-83
2021/07/22 10:32:58;;;;;;;7.75;2.90;;;30.60;38.70;;;;;;5009739;28;20029;-83
2021/07/22 10:35:32;;;;;;;8.48;3.70;;;30.60;37.90;;;;;;5027253;28;20034;-82
2021/07/22 10:38:14;;;;;;;11.40;3.40;;;30.30;38.60;;;;;;5009731;28;20108;-82
2021/07/22 10:40:50;;;;;;;7.53;3.35;;;29.70;39.10;;;;;;5009783;28;20133;-82
2021/07/22 10:43:38;;;;;;;7.53;3.30;;;29.60;40.10;;;;;;5027598;28;20037;-82
2021/07/22 10:46:21;;;;;;;5.88;3.10;;;29.40;40.40;;;;;;5026759;28;20076;-84
2021/07/22 10:48:47;;;;;;;10.05;3.17;;;29.20;41.80;;;;;;5009301;28;20753;-83
2021/07/22 10:51:19;;;;;;;9.50;3.25;;;29.20;41.20;;;;;;5026981;28;20032;-83
2021/07/22 10:53:49;;;;;;;10.55;3.30;;;29.20;40.40;;;;;;5009201;28;20025;-85
2021/07/22 10:56:24;;;;;;;8.27;2.88;;;28.80;41.70;;;;;;5009274;28;20035;-84
2021/07/22 10:58:55;;;;;;;6.90;3.60;;;28.70;42.00;;;;;;5008725;28;20030;-83
2021/07/22 11:01:42;;;;;;;5.35;3.08;;;28.80;42.30;;;;;;5009347;28;20037;-83
2021/07/22 11:04:08;;;;;;;10.68;3.42;;;28.90;41.80;;;;;;5009373;28;20056;-83
2021/07/22 11:06:58;;;;;;;5.60;3.28;;;28.70;42.10;;;;;;5026589;28;20037;-83
2021/07/22 11:09:45;;;;;;;8.23;3.65;;;28.70;41.80;;;;;;5009254;28;20076;-85
2021/07/22 11:12:32;;;;;;;6.25;3.60;;;28.60;40.80;;;;;;5027066;28;20026;-83
2021/07/22 11:15:00;;;;;;;15.02;3.72;;;28.40;41.60;;;;;;5009196;28;20072;-83
2021/07/22 11:17:36;;;;;;;9.00;3.67;;;28.40;43.00;;;;;;5009698;28;20036;-82
2021/07/22 11:20:32;;;;;;;5.75;3.65;;;28.50;43.50;;;;;;5009564;28;20025;-83
2021/07/22 11:23:09;;;;;;;10.43;3.45;;;28.80;43.10;;;;;;5010929;28;20045;-85
2021/07/22 11:25:43;;;;;;;7.07;3.20;;;28.90;41.80;;;;;;5013104;28;20441;-83
2021/07/22 11:28:10;;;;;;;10.82;3.58;;;28.90;42.20;;;;;;5030592;28;20026;-84
2021/07/22 11:30:35;;;;;;;11.45;3.28;;;28.90;43.00;;;;;;5012972;28;20180;-82
2021/07/22 11:33:17;;;;;;;6.25;2.92;;;29.20;42.60;;;;;;5030300;28;20521;-83
2021/07/22 11:36:01;;;;;;;11.23;3.22;;;29.40;42.90;;;;;;5012948;28;20593;-82
2021/07/22 11:38:28;;;;;;;10.07;4.13;;;29.40;42.30;;;;;;5012653;28;20038;-82
2021/07/22 11:40:54;;;;;;;7.18;3.13;;;29.30;43.00;;;;;;5030824;28;20056;-82
2021/07/22 11:43:38;;;;;;;9.75;3.58;;;29.30;42.50;;;;;;5030280;28;20064;-83
2021/07/22 11:46:07;;;;;;;7.15;3.60;;;28.90;42.00;;;;;;5012715;28;20038;-84
2021/07/22 11:48:33;;;;;;;9.77;3.50;;;28.50;42.20;;;;;;5012938;28;20029;-84
2021/07/22 11:51:10;;;;;;;6.93;2.95;;;28.20;42.30;;;;;;5030867;28;20032;-82
2021/07/22 11:53:37;;;;;;;6.43;3.20;;;28.00;42.80;;;;;;5012330;28;20437;-83
2021/07/22 11:56:16;;;;;;;6.80;3.28;;;28.00;43.10;;;;;;5030124;28;20476;-83
2021/07/22 11:58:49;;;;;;;8.38;3.78;;;27.90;43.50;;;;;;5030196;28;20068;-85
2021/07/22 12:01:15;;;;;;;7.45;3.38;;;27.80;43.90;;;;;;5012640;28;20033;-84
2021/07/22 12:03:46;;;;;;;8.38;3.88;;;27.80;43.90;;;;;;5012342;28;20041;-84
2021/07/22 12:06:12;;;;;;;5.63;3.15;;;28.00;43.00;;;;;;5012568;28;20060;-83
2021/07/22 12:08:38;;;;;;;9.98;3.28;;;28.30;43.40;;;;;;5012151;28;20052;-84
2021/07/22 12:11:04;;;;;;;7.78;3.92;;;28.60;41.70;;;;;;5012570;28;20083;-83
2021/07/22 12:13:52;;;;;;;5.97;3.55;;;28.60;42.40;;;;;;5011808;28;20577;-84
2021/07/22 12:16:24;;;;;;;6.47;3.10;;;28.80;41.80;;;;;;5012024;28;20030;-84
2021/07/22 12:18:54;;;;;;;9.15;3.90;;;28.70;42.20;;;;;;5012513;28;20017;-85
2021/07/22 12:21:25;;;;;;;6.82;2.90;;;28.70;42.30;;;;;;5012373;28;20134;-83
2021/07/22 12:23:51;;;;;;;5.00;3.45;;;28.70;43.20;;;;;;5030251;28;20929;-83
2021/07/22 12:26:18;;;;;;;10.68;3.45;;;28.50;42.60;;;;;;5011819;28;20116;-83
2021/07/22 12:28:59;;;;;;;6.93;3.25;;;28.40;43.00;;;;;;5011386;28;20026;-83
2021/07/22 12:31:24;;;;;;;8.52;3.67;;;28.50;43.50;;;;;;5007472;28;20125;-84
2021/07/22 12:33:58;;;;;;;6.28;3.13;;;28.10;43.50;;;;;;4996131;28;20129;-84
2021/07/22 12:36:24;;;;;;;4.57;3.55;;;28.00;44.60;;;;;;5000757;28;20029;-83
2021/07/22 12:39:30;;;;;;;7.90;3.20;;;27.80;43.90;;;;;;5012006;28;20072;-84
2021/07/22 12:42:08;;;;;;;6.82;3.33;;;27.70;44.10;;;;;;5029005;28;20043;-84
2021/07/22 12:44:49;;;;;;;5.38;3.53;;;27.40;44.10;;;;;;5029823;28;20036;-83
2021/07/22 12:47:32;;;;;;;12.27;4.40;;;27.20;44.70;;;;;;5030091;28;20014;-83
2021/07/22 12:49:59;;;;;;;7.90;3.65;;;27.00;45.20;;;;;;5012467;28;20029;-86
2021/07/22 12:52:26;;;;;;;8.50;3.72;;;26.90;45.30;;;;;;5012842;28;20030;-83
2021/07/22 12:55:04;;;;;;;8.90;3.88;;;26.80;46.10;;;;;;5030047;28;20037;-82
2021/07/22 12:57:40;;;;;;;7.47;3.58;;;26.70;45.90;;;;;;5012210;28;20025;-83
2021/07/22 13:00:13;;;;;;;10.75;3.47;;;26.70;46.30;;;;;;5011975;28;20120;-84
2021/07/22 13:03:00;;;;;;;7.85;3.75;;;26.70;46.30;;;;;;5027610;28;20086;-84
2021/07/22 13:05:27;;;;;;;8.55;3.75;;;26.70;46.00;;;;;;5028796;28;20632;-83
2021/07/22 13:07:53;;;;;;;7.03;3.55;;;26.60;46.00;;;;;;5012277;28;20041;-85
2021/07/22 13:10:21;;;;;;;7.43;4.15;;;26.60;46.50;;;;;;5012391;28;20048;-84
2021/07/22 13:12:47;;;;;;;10.98;4.20;;;26.70;46.40;;;;;;5011818;28;20030;-83
2021/07/22 13:15:13;;;;;;;11.70;4.60;;;26.70;45.70;;;;;;5029764;28;20072;-84
2021/07/22 13:17:39;;;;;;;7.57;4.05;;;26.70;45.80;;;;;;5012360;28;20525;-84
2021/07/22 13:20:20;;;;;;;9.57;4.55;;;26.70;46.20;;;;;;5012201;28;20061;-83
2021/07/22 13:22:49;;;;;;;8.15;4.25;;;26.80;45.80;;;;;;5011938;28;20038;-83
2021/07/22 13:25:15;;;;;;;11.13;3.95;;;26.80;45.80;;;;;;5012115;28;20060;-84
2021/07/22 13:27:42;;;;;;;8.13;3.67;;;26.90;45.50;;;;;;5011128;28;20025;-82
2021/07/22 13:30:09;;;;;;;11.43;3.60;;;26.80;46.00;;;;;;5012084;28;20143;-84
2021/07/22 13:32:36;;;;;;;15.02;4.15;;;26.90;45.10;;;;;;5011507;28;20205;-83
2021/07/22 13:35:06;;;;;;;5.85;2.97;;;26.90;45.60;;;;;;5012228;28;20053;-84
2021/07/22 13:37:33;;;;;;;6.40;3.47;;;26.80;46.10;;;;;;5013807;28;20037;-85
2021/07/22 13:39:59;;;;;;;11.80;4.95;;;26.70;45.60;;;;;;5013592;28;20048;-84
2021/07/22 13:42:25;;;;;;;9.95;3.80;;;26.60;46.00;;;;;;5030559;28;20120;-84
2021/07/22 13:44:51;;;;;;;9.50;4.05;;;26.60;46.40;;;;;;5011542;28;20021;-83
2021/07/22 13:47:17;;;;;;;7.40;4.35;;;26.70;46.30;;;;;;5011408;28;20044;-83
2021/07/22 13:49:43;;;;;;;10.35;3.40;;;26.60;46.70;;;;;;5029160;28;20026;-84
2021/07/22 13:52:10;;;;;;;9.48;4.25;;;26.70;46.60;;;;;;5011717;28;20029;-84
2021/07/22 13:54:36;;;;;;;7.75;3.13;;;26.80;46.90;;;;;;5011518;28;20029;-84
2021/07/22 13:57:02;;;;;;;10.05;4.18;;;27.00;46.30;;;;;;5011302;28;20700;-84
2021/07/22 13:59:29;;;;;;;8.35;3.70;;;27.30;45.50;;;;;;5010906;28;20029;-84
2021/07/22 14:01:55;;;;;;;11.77;4.03;;;27.40;45.20;;;;;;5011055;28;20494;-84